Time;durP1;ratioP1;P1;durP2;ratioP2;P2;SDS_P1;SDS_P2;PMS_P1;PMS_P2;Temp;Humidity;BMP_temperature;BMP_pressure;BME280_temperature;BME280_humidity;BME280_pressure;Samples;Min_cycle;Max_cycle;Signal;HPM_P1;HPM_P2
2023/10/26 00:00:52;;;;;;;0.60;0.60;;;;;10.50;94269.00;;;;5053466;28;20184;-60
2023/10/26 00:03:19;;;;;;;0.60;0.60;;;;;10.60;94265.00;;;;5053341;28;20206;-59
2023/10/26 00:05:47;;;;;;;0.60;0.60;;;;;10.60;94263.00;;;;5053353;28;20192;-59
2023/10/26 00:08:16;;;;;;;0.57;0.57;;;;;10.50;94262.00;;;;5053262;28;20216;-59
2023/10/26 00:10:43;;;;;;;0.50;0.50;;;;;10.50;94262.00;;;;5053621;28;20188;-59
2023/10/26 00:13:11;;;;;;;0.50;0.50;;;;;10.50;94262.00;;;;5053122;28;20215;-59
2023/10/26 00:15:38;;;;;;;0.50;0.50;;;;;10.50;94275.00;;;;5053249;28;20196;-59
2023/10/26 00:18:06;;;;;;;0.63;0.63;;;;;10.50;94273.00;;;;5053315;28;20203;-59
2023/10/26 00:20:33;;;;;;;0.50;0.50;;;;;10.50;94266.00;;;;5053301;28;20192;-59
2023/10/26 00:23:01;;;;;;;0.60;0.60;;;;;10.60;94268.00;;;;5053177;28;20215;-60
2023/10/26 00:25:30;;;;;;;0.60;0.60;;;;;10.60;94262.00;;;;5035284;28;20227;-59
2023/10/26 00:27:58;;;;;;;0.60;0.60;;;;;10.60;94258.00;;;;5038578;28;20220;-60
2023/10/26 00:30:26;;;;;;;3.87;1.03;;;;;10.60;94261.00;;;;5057165;28;20195;-59
2023/10/26 00:32:53;;;;;;;0.67;0.67;;;;;10.60;94268.00;;;;5057260;28;20212;-59
2023/10/26 00:35:21;;;;;;;0.60;0.60;;;;;10.80;94264.00;;;;5039627;28;20196;-60
2023/10/26 00:37:48;;;;;;;0.50;0.50;;;;;10.70;94264.00;;;;5057002;28;20208;-59
2023/10/26 00:40:17;;;;;;;0.60;0.60;;;;;10.80;94264.00;;;;5057181;28;20196;-59
2023/10/26 00:42:46;;;;;;;0.60;0.60;;;;;10.80;94260.00;;;;5056931;28;20215;-60
2023/10/26 00:45:13;;;;;;;0.50;0.50;;;;;10.70;94256.00;;;;5057034;28;20192;-59
2023/10/26 00:47:41;;;;;;;0.50;0.50;;;;;10.80;94261.00;;;;5056893;28;20242;-59
2023/10/26 00:50:09;;;;;;;0.57;0.57;;;;;10.80;94262.00;;;;5056925;28;20192;-59
2023/10/26 00:52:39;;;;;;;0.60;0.60;;;;;10.70;94257.00;;;;5039308;28;20695;-59
2023/10/26 00:55:07;;;;;;;0.80;0.80;;;;;10.70;94265.00;;;;5056754;28;20199;-59
2023/10/26 00:57:36;;;;;;;0.67;0.67;;;;;10.70;94257.00;;;;5056789;28;20212;-59
2023/10/26 01:00:09;;;;;;;0.60;0.60;;;;;10.80;94259.00;;;;5057250;28;20192;-58
2023/10/26 01:02:37;;;;;;;0.50;0.50;;;;;10.90;94256.00;;;;5057155;28;20747;-58
2023/10/26 01:05:05;;;;;;;0.67;0.67;;;;;10.80;94256.00;;;;5056744;28;20593;-58
2023/10/26 01:07:33;;;;;;;0.70;0.70;;;;;10.50;94258.00;;;;5056461;28;20220;-58
2023/10/26 01:10:00;;;;;;;0.60;0.60;;;;;10.60;94257.00;;;;5056489;28;20275;-58
2023/10/26 01:12:28;;;;;;;0.87;0.80;;;;;10.40;94257.00;;;;5056451;28;20231;-58
2023/10/26 01:14:55;;;;;;;0.50;0.50;;;;;10.30;94254.00;;;;5056238;28;20711;-58
2023/10/26 01:17:24;;;;;;;0.50;0.50;;;;;10.20;94260.00;;;;5038526;28;20196;-58
2023/10/26 01:19:52;;;;;;;0.60;0.60;;;;;10.30;94258.00;;;;5056685;28;20249;-58
2023/10/26 01:22:20;;;;;;;0.90;0.90;;;;;10.10;94252.00;;;;5056653;28;20239;-59
2023/10/26 01:24:48;;;;;;;0.60;0.60;;;;;10.10;94250.00;;;;5056267;28;20188;-60
2023/10/26 01:27:15;;;;;;;0.60;0.60;;;;;10.00;94263.00;;;;5056471;28;20553;-58
2023/10/26 01:29:43;;;;;;;0.57;0.57;;;;;10.10;94262.00;;;;5056087;28;20192;-58
2023/10/26 01:32:10;;;;;;;0.80;0.80;;;;;10.10;94267.00;;;;5056012;28;20679;-59
2023/10/26 01:34:37;;;;;;;0.60;0.60;;;;;10.00;94263.00;;;;5056416;28;20196;-58
2023/10/26 01:37:05;;;;;;;0.60;0.60;;;;;10.10;94266.00;;;;5055450;28;20266;-58
2023/10/26 01:39:34;;;;;;;0.60;0.60;;;;;9.90;94268.00;;;;5056040;28;20211;-59
2023/10/26 01:42:02;;;;;;;0.60;0.60;;;;;9.80;94260.00;;;;5037832;28;20216;-58
2023/10/26 01:44:29;;;;;;;0.80;0.80;;;;;9.70;94268.00;;;;5056066;28;20674;-58
2023/10/26 01:46:56;;;;;;;0.60;0.60;;;;;9.80;94259.00;;;;5056393;28;20561;-59
2023/10/26 01:49:24;;;;;;;0.60;0.60;;;;;9.90;94265.00;;;;5055838;28;20216;-59
2023/10/26 01:51:51;;;;;;;0.57;0.57;;;;;9.90;94262.00;;;;5055777;28;20216;-59
2023/10/26 01:54:18;;;;;;;0.50;0.50;;;;;10.00;94267.00;;;;5055958;28;20203;-59
2023/10/26 01:56:47;;;;;;;0.43;0.43;;;;;10.00;94263.00;;;;5037707;28;20206;-59
2023/10/26 01:59:15;;;;;;;0.50;0.50;;;;;9.80;94260.00;;;;5037474;28;20188;-59
2023/10/26 02:01:42;;;;;;;0.53;0.53;;;;;9.90;94245.00;;;;5055562;28;20710;-60
2023/10/26 02:04:09;;;;;;;0.53;0.53;;;;;9.80;94250.00;;;;5037563;28;20199;-58
2023/10/26 02:06:37;;;;;;;0.60;0.60;;;;;9.80;94239.00;;;;5055354;28;20192;-59
2023/10/26 02:09:05;;;;;;;0.50;0.50;;;;;9.80;94247.00;;;;5055505;28;20252;-58
2023/10/26 02:11:32;;;;;;;0.60;0.60;;;;;9.80;94241.00;;;;5055281;28;20216;-58
2023/10/26 02:14:01;;;;;;;0.50;0.50;;;;;9.90;94249.00;;;;5055553;28;20758;-58
2023/10/26 02:16:28;;;;;;;0.50;0.50;;;;;9.90;94240.00;;;;5055233;28;20197;-58
2023/10/26 02:18:55;;;;;;;0.60;0.60;;;;;9.70;94247.00;;;;5055198;28;20203;-60
2023/10/26 02:21:23;;;;;;;0.60;0.60;;;;;9.60;94246.00;;;;5055377;28;20216;-59
2023/10/26 02:23:51;;;;;;;1.30;1.20;;;;;9.60;94250.00;;;;5055785;28;20192;-59
2023/10/26 02:26:18;;;;;;;0.50;0.50;;;;;9.60;94253.00;;;;5055510;28;20686;-59
2023/10/26 02:28:45;;;;;;;0.60;0.60;;;;;9.70;94254.00;;;;5055108;28;20250;-59
2023/10/26 02:31:14;;;;;;;1.43;1.07;;;;;9.50;94255.00;;;;5054977;28;20208;-58
2023/10/26 02:33:42;;;;;;;0.90;0.90;;;;;9.60;94244.00;;;;5055304;28;20188;-58
2023/10/26 02:36:10;;;;;;;0.50;0.50;;;;;9.70;94235.00;;;;5054896;28;20200;-58
2023/10/26 02:38:37;;;;;;;0.57;0.57;;;;;9.50;94233.00;;;;5054816;28;20192;-58
2023/10/26 02:41:05;;;;;;;0.60;0.60;;;;;9.60;94236.00;;;;5054610;28;20683;-59
2023/10/26 02:43:33;;;;;;;0.60;0.60;;;;;9.60;94239.00;;;;5054939;28;20664;-59
2023/10/26 02:46:05;;;;;;;0.50;0.50;;;;;9.50;94241.00;;;;5054597;28;20686;-60
2023/10/26 02:48:34;;;;;;;0.60;0.60;;;;;9.50;94242.00;;;;5054056;28;20684;-58
2023/10/26 02:51:03;;;;;;;0.60;0.60;;;;;9.60;94234.00;;;;5054021;28;20219;-60
2023/10/26 02:53:30;;;;;;;0.70;0.70;;;;;9.60;94226.00;;;;5054365;28;20196;-59
2023/10/26 02:55:58;;;;;;;0.63;0.63;;;;;9.50;94222.00;;;;5054338;28;20199;-59
2023/10/26 02:58:25;;;;;;;0.80;0.80;;;;;9.50;94222.00;;;;5054444;28;20211;-58
2023/10/26 03:00:55;;;;;;;0.50;0.50;;;;;9.40;94216.00;;;;5054268;28;20562;-59
2023/10/26 03:03:22;;;;;;;0.70;0.70;;;;;9.40;94216.00;;;;5036622;28;20253;-59
2023/10/26 03:05:51;;;;;;;0.60;0.60;;;;;9.50;94219.00;;;;5054425;28;20194;-58
2023/10/26 03:08:18;;;;;;;0.77;0.77;;;;;9.40;94222.00;;;;5054378;28;20271;-58
2023/10/26 03:10:46;;;;;;;0.60;0.60;;;;;9.40;94217.00;;;;5054277;28;20223;-58
2023/10/26 03:13:13;;;;;;;0.60;0.60;;;;;9.50;94219.00;;;;5054187;28;20657;-58
2023/10/26 03:15:40;;;;;;;0.60;0.60;;;;;9.40;94210.00;;;;5054030;28;20192;-58
2023/10/26 03:18:08;;;;;;;0.60;0.60;;;;;9.30;94217.00;;;;5054131;28;20195;-59
2023/10/26 03:20:35;;;;;;;0.50;0.50;;;;;9.40;94222.00;;;;5054189;28;20195;-59
2023/10/26 03:23:04;;;;;;;0.70;0.70;;;;;9.30;94223.00;;;;5053853;28;20761;-58
2023/10/26 03:25:32;;;;;;;0.60;0.60;;;;;9.20;94222.00;;;;5053941;28;20259;-58
2023/10/26 03:28:00;;;;;;;0.50;0.50;;;;;9.10;94224.00;;;;5054023;28;20295;-58
2023/10/26 03:30:27;;;;;;;0.70;0.70;;;;;9.10;94216.00;;;;5053739;28;20257;-59
2023/10/26 03:32:55;;;;;;;0.60;0.60;;;;;9.10;94221.00;;;;5053844;28;20203;-59
2023/10/26 03:35:22;;;;;;;0.60;0.60;;;;;8.90;94226.00;;;;5053603;28;20196;-59
2023/10/26 03:37:49;;;;;;;0.70;0.70;;;;;8.90;94236.00;;;;5053604;28;20206;-59
2023/10/26 03:40:18;;;;;;;0.60;0.60;;;;;8.80;94229.00;;;;5054486;28;20196;-59
2023/10/26 03:42:45;;;;;;;0.50;0.50;;;;;8.90;94219.00;;;;5053982;28;20215;-59
2023/10/26 03:45:13;;;;;;;0.70;0.70;;;;;8.90;94228.00;;;;5035758;28;20257;-59
2023/10/26 03:47:40;;;;;;;0.60;0.60;;;;;8.90;94217.00;;;;5035726;28;20198;-59
2023/10/26 03:50:08;;;;;;;0.63;0.63;;;;;9.00;94222.00;;;;5053480;28;20199;-59
2023/10/26 03:52:36;;;;;;;0.50;0.50;;;;;9.00;94224.00;;;;5053726;28;20691;-59
2023/10/26 03:55:04;;;;;;;0.70;0.70;;;;;8.80;94222.00;;;;5053578;28;20250;-59
2023/10/26 03:57:33;;;;;;;0.53;0.53;;;;;8.90;94217.00;;;;5053706;28;20188;-59
2023/10/26 04:00:01;;;;;;;0.70;0.70;;;;;9.00;94227.00;;;;5053741;28;20261;-59
2023/10/26 04:02:28;;;;;;;0.63;0.63;;;;;9.10;94214.00;;;;5053090;28;20303;-60
2023/10/26 04:04:57;;;;;;;0.70;0.70;;;;;9.00;94228.00;;;;5053301;28;20192;-60
2023/10/26 04:07:24;;;;;;;0.60;0.60;;;;;8.90;94228.00;;;;5053375;28;20241;-59
2023/10/26 04:09:51;;;;;;;0.60;0.60;;;;;9.00;94223.00;;;;5053462;28;20239;-59
2023/10/26 04:12:19;;;;;;;0.60;0.60;;;;;9.00;94219.00;;;;5053439;28;20552;-59
2023/10/26 04:14:48;;;;;;;0.70;0.70;;;;;9.00;94212.00;;;;5035467;28;20303;-59
2023/10/26 04:17:15;;;;;;;3.70;1.27;;;;;9.00;94215.00;;;;5053101;28;20203;-59
2023/10/26 04:19:43;;;;;;;0.73;0.73;;;;;9.10;94216.00;;;;5053173;28;20184;-59
2023/10/26 04:22:10;;;;;;;0.50;0.50;;;;;8.90;94218.00;;;;5053424;28;20204;-59
2023/10/26 04:24:37;;;;;;;0.90;0.90;;;;;9.00;94216.00;;;;5053117;28;20204;-59
2023/10/26 04:27:05;;;;;;;0.60;0.60;;;;;8.90;94222.00;;;;5053759;28;20192;-59
2023/10/26 04:29:33;;;;;;;0.67;0.67;;;;;8.90;94219.00;;;;5053278;28;20290;-60
2023/10/26 04:32:01;;;;;;;0.73;0.73;;;;;9.00;94210.00;;;;5053038;28;20243;-59
2023/10/26 04:34:29;;;;;;;0.57;0.57;;;;;9.10;94217.00;;;;5053127;28;20201;-60
2023/10/26 04:36:56;;;;;;;0.60;0.60;;;;;9.00;94214.00;;;;5053213;28;20207;-59
2023/10/26 04:39:23;;;;;;;0.60;0.60;;;;;9.00;94214.00;;;;5053303;28;20671;-59
2023/10/26 04:41:51;;;;;;;0.60;0.60;;;;;9.00;94214.00;;;;5052703;28;20300;-59
2023/10/26 04:44:18;;;;;;;0.60;0.60;;;;;9.00;94211.00;;;;5053140;28;20197;-59
2023/10/26 04:46:46;;;;;;;0.70;0.70;;;;;8.90;94209.00;;;;5034947;28;20196;-59
2023/10/26 04:49:14;;;;;;;0.80;0.80;;;;;8.90;94211.00;;;;5053288;28;20740;-59
2023/10/26 04:51:42;;;;;;;0.70;0.70;;;;;8.90;94212.00;;;;5053084;28;20219;-60
2023/10/26 04:54:09;;;;;;;0.50;0.50;;;;;8.90;94205.00;;;;5053133;28;20196;-59
2023/10/26 04:56:36;;;;;;;0.70;0.70;;;;;8.90;94203.00;;;;5053197;28;20192;-60
2023/10/26 04:59:04;;;;;;;0.83;0.83;;;;;8.90;94199.00;;;;5053348;28;20192;-59
2023/10/26 05:01:31;;;;;;;2.20;1.10;;;;;9.00;94204.00;;;;5035025;28;20212;-59
2023/10/26 05:03:58;;;;;;;0.73;0.73;;;;;8.90;94204.00;;;;5053021;28;20579;-60
2023/10/26 05:06:27;;;;;;;1.20;1.20;;;;;8.90;94199.00;;;;5053336;28;20188;-62
2023/10/26 05:08:54;;;;;;;1.53;1.43;;;;;8.90;94202.00;;;;5052652;28;20219;-62
2023/10/26 05:11:23;;;;;;;0.70;0.70;;;;;8.90;94198.00;;;;5052313;28;20675;-61
2023/10/26 05:13:52;;;;;;;0.77;0.77;;;;;8.90;94194.00;;;;5037459;28;20203;-61
2023/10/26 05:16:20;;;;;;;0.87;0.80;;;;;9.10;94199.00;;;;5056298;28;20210;-61
2023/10/26 05:18:47;;;;;;;0.70;0.70;;;;;9.20;94189.00;;;;5056443;28;20185;-59
2023/10/26 05:21:15;;;;;;;0.70;0.70;;;;;9.20;94179.00;;;;5056714;28;20223;-59
2023/10/26 05:23:44;;;;;;;0.60;0.60;;;;;9.10;94186.00;;;;5038470;28;20203;-60
2023/10/26 05:26:11;;;;;;;0.53;0.53;;;;;9.10;94180.00;;;;5057712;28;20235;-60
2023/10/26 05:28:39;;;;;;;0.50;0.50;;;;;9.10;94173.00;;;;5040200;28;20227;-60
2023/10/26 05:31:06;;;;;;;0.60;0.60;;;;;9.10;94179.00;;;;5057120;28;20549;-61
2023/10/26 05:33:33;;;;;;;0.70;0.70;;;;;9.20;94171.00;;;;5058444;28;20198;-61
2023/10/26 05:36:01;;;;;;;0.70;0.70;;;;;9.10;94164.00;;;;5057931;28;20235;-61
2023/10/26 05:38:28;;;;;;;1.27;1.27;;;;;9.10;94166.00;;;;5058284;28;20206;-61
2023/10/26 05:40:58;;;;;;;0.70;0.70;;;;;9.20;94170.00;;;;5057997;28;20299;-61
2023/10/26 05:43:25;;;;;;;0.50;0.50;;;;;9.10;94154.00;;;;5057741;28;20210;-61
2023/10/26 05:45:54;;;;;;;0.60;0.60;;;;;9.30;94153.00;;;;5057947;28;20188;-61
2023/10/26 05:48:23;;;;;;;0.70;0.70;;;;;9.30;94162.00;;;;5057611;28;20196;-61
2023/10/26 05:50:50;;;;;;;0.50;0.50;;;;;9.20;94154.00;;;;5058226;28;20199;-61
2023/10/26 05:53:18;;;;;;;0.57;0.57;;;;;9.20;94155.00;;;;5058001;28;20192;-62
2023/10/26 05:55:55;;;;;;;0.70;0.70;;;;;9.20;94142.00;;;;5057898;28;20192;-61
2023/10/26 05:58:24;;;;;;;0.67;0.67;;;;;9.20;94150.00;;;;5058318;28;20181;-61
2023/10/26 06:00:51;;;;;;;0.87;0.87;;;;;9.20;94149.00;;;;5039868;28;20697;-61
2023/10/26 06:03:19;;;;;;;0.70;0.70;;;;;9.30;94147.00;;;;5040017;28;20246;-61
2023/10/26 06:05:47;;;;;;;0.60;0.60;;;;;9.20;94152.00;;;;5057645;28;20238;-60
2023/10/26 06:08:15;;;;;;;0.50;0.50;;;;;9.20;94149.00;;;;5057759;28;20192;-60
2023/10/26 06:10:42;;;;;;;0.60;0.60;;;;;9.30;94154.00;;;;5057189;28;20563;-60
2023/10/26 06:13:10;;;;;;;0.60;0.60;;;;;9.20;94155.00;;;;5057089;28;20218;-61
2023/10/26 06:15:39;;;;;;;1.00;1.00;;;;;9.30;94152.00;;;;5039235;28;20603;-60
2023/10/26 06:18:06;;;;;;;0.50;0.50;;;;;9.30;94152.00;;;;5057413;28;20185;-60
2023/10/26 06:20:34;;;;;;;0.80;0.80;;;;;9.30;94156.00;;;;5057215;28;20192;-60
2023/10/26 06:23:02;;;;;;;0.80;0.80;;;;;9.40;94150.00;;;;5056788;28;20223;-60
2023/10/26 06:25:29;;;;;;;0.70;0.70;;;;;9.40;94145.00;;;;5057648;28;20542;-60
2023/10/26 06:27:57;;;;;;;0.60;0.60;;;;;9.40;94145.00;;;;5057334;28;20733;-60
2023/10/26 06:30:25;;;;;;;0.50;0.50;;;;;9.40;94152.00;;;;5057637;28;20223;-60
2023/10/26 06:32:54;;;;;;;1.07;0.80;;;;;9.40;94140.00;;;;5056887;28;20211;-61
2023/10/26 06:35:22;;;;;;;0.60;0.60;;;;;9.40;94141.00;;;;5057229;28;20686;-61
2023/10/26 06:37:49;;;;;;;1.27;1.10;;;;;9.40;94136.00;;;;5056732;28;20204;-61
2023/10/26 06:40:17;;;;;;;0.60;0.60;;;;;9.50;94150.00;;;;5056816;28;20193;-61
2023/10/26 06:42:44;;;;;;;1.47;1.07;;;;;9.60;94167.00;;;;5056760;28;20215;-61
2023/10/26 06:45:12;;;;;;;0.70;0.70;;;;;9.50;94166.00;;;;5056891;28;20214;-61
2023/10/26 06:47:39;;;;;;;0.70;0.70;;;;;9.60;94166.00;;;;5056797;28;20295;-61
2023/10/26 06:50:09;;;;;;;0.80;0.80;;;;;9.50;94162.00;;;;5055985;28;20220;-61
2023/10/26 06:52:37;;;;;;;1.20;1.10;;;;;9.60;94157.00;;;;5056206;28;20223;-61
2023/10/26 06:55:04;;;;;;;0.53;0.53;;;;;9.60;94152.00;;;;5056191;28;20204;-61
2023/10/26 06:57:35;;;;;;;0.60;0.60;;;;;9.60;94148.00;;;;5056323;28;20195;-61
2023/10/26 07:00:02;;;;;;;0.60;0.60;;;;;9.70;94159.00;;;;5038309;28;20188;-61
2023/10/26 07:02:31;;;;;;;0.50;0.50;;;;;9.60;94158.00;;;;5056186;28;20294;-61
2023/10/26 07:04:59;;;;;;;1.07;1.07;;;;;9.80;94158.00;;;;5055947;28;20191;-61
2023/10/26 07:07:28;;;;;;;0.60;0.60;;;;;9.80;94159.00;;;;5055877;28;20192;-61
2023/10/26 07:09:56;;;;;;;0.90;0.73;;;;;9.90;94166.00;;;;5038510;28;20587;-61
2023/10/26 07:12:24;;;;;;;0.50;0.50;;;;;9.80;94149.00;;;;5055760;28;20207;-61
2023/10/26 07:14:53;;;;;;;0.60;0.60;;;;;9.90;94155.00;;;;5055911;28;20196;-61
2023/10/26 07:17:23;;;;;;;0.90;0.90;;;;;9.90;94153.00;;;;5060140;28;20283;-61
2023/10/26 07:19:52;;;;;;;1.00;1.00;;;;;9.90;94151.00;;;;5060489;28;20255;-61
2023/10/26 07:22:19;;;;;;;3.03;0.90;;;;;9.90;94160.00;;;;5060923;28;20226;-60
2023/10/26 07:24:48;;;;;;;0.60;0.60;;;;;9.90;94158.00;;;;5061315;28;20215;-61
2023/10/26 07:27:16;;;;;;;0.60;0.60;;;;;10.00;94156.00;;;;5062091;28;20748;-61
2023/10/26 07:29:44;;;;;;;0.60;0.60;;;;;10.00;94150.00;;;;5061859;28;20208;-61
2023/10/26 07:32:11;;;;;;;1.83;1.13;;;;;10.00;94149.00;;;;5061159;28;20219;-61
2023/10/26 07:34:38;;;;;;;0.93;0.93;;;;;10.10;94140.00;;;;5057502;28;20196;-61
2023/10/26 07:37:06;;;;;;;0.63;0.63;;;;;10.20;94156.00;;;;5058083;28;20203;-61
2023/10/26 07:39:35;;;;;;;0.70;0.70;;;;;10.20;94157.00;;;;5040629;28;20188;-61
2023/10/26 07:42:04;;;;;;;0.70;0.70;;;;;10.20;94162.00;;;;5059323;28;20211;-61
2023/10/26 07:44:33;;;;;;;0.50;0.50;;;;;10.30;94150.00;;;;5056605;28;20196;-61
2023/10/26 07:47:01;;;;;;;0.60;0.60;;;;;10.30;94136.00;;;;5054464;28;20232;-61
2023/10/26 07:49:28;;;;;;;0.90;0.90;;;;;10.40;94149.00;;;;5037038;28;20656;-61
2023/10/26 07:51:55;;;;;;;0.80;0.80;;;;;10.30;94145.00;;;;5054360;28;20222;-61
2023/10/26 07:54:23;;;;;;;0.60;0.60;;;;;10.30;94136.00;;;;5054651;28;20196;-61
2023/10/26 07:56:51;;;;;;;0.57;0.57;;;;;10.40;94133.00;;;;5054152;28;20188;-61
2023/10/26 07:59:20;;;;;;;0.70;0.70;;;;;10.50;94142.00;;;;5054510;28;20671;-61
2023/10/26 08:01:48;;;;;;;0.50;0.50;;;;;10.60;94136.00;;;;5055053;28;20208;-61
2023/10/26 08:04:15;;;;;;;0.70;0.70;;;;;10.50;94133.00;;;;5055582;28;20253;-61
2023/10/26 08:06:42;;;;;;;0.70;0.70;;;;;10.60;94137.00;;;;5036963;28;20639;-61
2023/10/26 08:09:10;;;;;;;0.60;0.60;;;;;10.60;94134.00;;;;5055514;28;20323;-61
2023/10/26 08:11:38;;;;;;;0.60;0.60;;;;;10.80;94123.00;;;;5039643;28;20220;-61
2023/10/26 08:14:05;;;;;;;0.60;0.60;;;;;10.70;94132.00;;;;5058660;28;20192;-61
2023/10/26 08:16:34;;;;;;;0.90;0.90;;;;;10.60;94131.00;;;;5055447;28;20192;-61
2023/10/26 08:19:01;;;;;;;0.50;0.50;;;;;10.60;94136.00;;;;5055167;28;20618;-61
2023/10/26 08:21:29;;;;;;;0.73;0.73;;;;;10.60;94131.00;;;;5055263;28;20212;-61
2023/10/26 08:23:57;;;;;;;0.60;0.60;;;;;10.60;94119.00;;;;5055528;28;20195;-61
2023/10/26 08:26:24;;;;;;;0.60;0.60;;;;;10.70;94131.00;;;;5055671;28;20682;-61
2023/10/26 08:28:51;;;;;;;1.00;1.00;;;;;10.50;94121.00;;;;5055370;28;20227;-61
2023/10/26 08:31:19;;;;;;;0.70;0.70;;;;;10.60;94114.00;;;;5037130;28;20228;-61
2023/10/26 08:33:48;;;;;;;0.83;0.83;;;;;10.60;94134.00;;;;5055197;28;20219;-61
2023/10/26 08:36:15;;;;;;;0.67;0.67;;;;;10.50;94129.00;;;;5053338;28;20698;-61
2023/10/26 08:38:43;;;;;;;0.60;0.60;;;;;10.40;94137.00;;;;5053984;28;20185;-61
2023/10/26 08:41:14;;;;;;;0.70;0.70;;;;;10.30;94139.00;;;;5053806;28;20284;-61
2023/10/26 08:43:43;;;;;;;0.60;0.60;;;;;10.40;94160.00;;;;5035843;28;20274;-61
2023/10/26 08:46:12;;;;;;;0.60;0.60;;;;;10.20;94146.00;;;;5054336;28;20191;-60
2023/10/26 08:48:41;;;;;;;0.70;0.70;;;;;10.30;94148.00;;;;5056447;28;20271;-61
2023/10/26 08:51:09;;;;;;;0.70;0.70;;;;;10.40;94149.00;;;;5056950;28;20639;-60
2023/10/26 08:53:37;;;;;;;0.90;0.90;;;;;10.40;94154.00;;;;5057060;28;20596;-60
2023/10/26 08:56:06;;;;;;;0.60;0.60;;;;;10.50;94135.00;;;;5057167;28;20197;-62
2023/10/26 08:58:33;;;;;;;0.57;0.57;;;;;10.80;94133.00;;;;5057645;28;20198;-61
2023/10/26 09:01:01;;;;;;;0.70;0.70;;;;;11.00;94139.00;;;;5057323;28;20197;-61
2023/10/26 09:03:28;;;;;;;0.60;0.60;;;;;11.00;94143.00;;;;5057176;28;20226;-61
2023/10/26 09:05:57;;;;;;;0.60;0.60;;;;;11.00;94137.00;;;;5057833;28;20532;-62
2023/10/26 09:08:27;;;;;;;0.50;0.50;;;;;10.70;94144.00;;;;5057617;28;20669;-61
2023/10/26 09:10:55;;;;;;;0.60;0.60;;;;;10.70;94136.00;;;;5058697;28;20220;-61
2023/10/26 09:13:27;;;;;;;0.87;0.87;;;;;10.90;94133.00;;;;5058578;28;20259;-61
2023/10/26 09:15:57;;;;;;;0.60;0.60;;;;;10.80;94134.00;;;;5057185;28;20184;-61
2023/10/26 09:18:25;;;;;;;0.60;0.60;;;;;10.90;94129.00;;;;5057010;28;20271;-61
2023/10/26 09:21:03;;;;;;;0.60;0.60;;;;;10.90;94135.00;;;;5056893;28;20271;-62
2023/10/26 09:23:34;;;;;;;0.60;0.60;;;;;10.80;94129.00;;;;5056889;28;20192;-62
2023/10/26 09:26:03;;;;;;;0.50;0.50;;;;;10.90;94144.00;;;;5057851;28;20176;-62
2023/10/26 09:28:47;;;;;;;0.50;0.50;;;;;10.60;94154.00;;;;5057413;28;20226;-62
2023/10/26 09:31:14;;;;;;;2.43;0.83;;;;;10.50;94135.00;;;;5056985;28;20223;-62
2023/10/26 09:33:42;;;;;;;0.50;0.50;;;;;10.60;94137.00;;;;5039286;28;20219;-62
2023/10/26 09:36:14;;;;;;;0.60;0.60;;;;;10.70;94119.00;;;;5038342;28;20699;-59
2023/10/26 09:38:43;;;;;;;0.60;0.60;;;;;10.90;94128.00;;;;5057206;28;20180;-60
2023/10/26 09:41:13;;;;;;;0.73;0.73;;;;;10.90;94123.00;;;;5058766;28;20536;-60
2023/10/26 09:43:41;;;;;;;0.50;0.50;;;;;11.00;94136.00;;;;5056908;28;20636;-61
2023/10/26 09:46:09;;;;;;;0.60;0.60;;;;;11.00;94135.00;;;;5058845;28;20254;-61
2023/10/26 09:48:37;;;;;;;0.60;0.60;;;;;10.70;94143.00;;;;5056423;28;20192;-61
2023/10/26 09:51:04;;;;;;;0.70;0.70;;;;;10.80;94151.00;;;;5038267;28;20310;-62
2023/10/26 09:53:34;;;;;;;0.50;0.50;;;;;11.00;94146.00;;;;5058023;28;20546;-61
2023/10/26 09:56:05;;;;;;;0.60;0.60;;;;;10.90;94149.00;;;;5039621;28;20192;-61
2023/10/26 09:58:40;;;;;;;0.50;0.50;;;;;10.90;94140.00;;;;5038948;28;20192;-61
2023/10/26 10:01:33;;;;;;;0.63;0.63;;;;;11.00;94140.00;;;;5057778;28;20186;-61
2023/10/26 10:04:01;;;;;;;0.60;0.60;;;;;11.10;94133.00;;;;5057478;28;20191;-61
2023/10/26 10:06:49;;;;;;;0.90;0.90;;;;;11.30;94149.00;;;;5057331;28;20188;-62
2023/10/26 10:09:19;;;;;;;0.53;0.53;;;;;11.20;94150.00;;;;5057214;28;20188;-61
2023/10/26 10:12:03;;;;;;;0.70;0.70;;;;;11.20;94161.00;;;;5057933;28;20227;-61
2023/10/26 10:14:57;;;;;;;0.70;0.70;;;;;11.10;94154.00;;;;5036433;28;20231;-61
2023/10/26 10:18:12;;;;;;;0.60;0.60;;;;;11.30;94157.00;;;;5057408;28;20539;-61
2023/10/26 10:20:41;;;;;;;0.70;0.70;;;;;11.30;94166.00;;;;5057258;28;20176;-61
2023/10/26 10:23:09;;;;;;;0.50;0.50;;;;;11.30;94167.00;;;;5056926;28;20223;-61
2023/10/26 10:25:58;;;;;;;0.60;0.60;;;;;11.30;94169.00;;;;5057135;28;20283;-61
2023/10/26 10:28:41;;;;;;;0.80;0.80;;;;;11.30;94162.00;;;;5038743;28;20222;-62
2023/10/26 10:31:09;;;;;;;0.60;0.60;;;;;11.40;94159.00;;;;5056493;28;20254;-61
2023/10/26 10:33:42;;;;;;;0.83;0.83;;;;;11.50;94158.00;;;;5057083;28;20191;-61
2023/10/26 10:36:09;;;;;;;0.73;0.73;;;;;11.70;94157.00;;;;5056626;28;20267;-61
2023/10/26 10:38:36;;;;;;;0.57;0.57;;;;;11.80;94169.00;;;;5056916;28;20192;-61
2023/10/26 10:41:14;;;;;;;1.43;1.33;;;;;11.90;94157.00;;;;5040257;28;20188;-61
2023/10/26 10:43:44;;;;;;;0.50;0.50;;;;;12.00;94142.00;;;;5057934;28;20191;-61
2023/10/26 10:46:16;;;;;;;1.07;1.07;;;;;12.00;94156.00;;;;5057950;28;20219;-61
2023/10/26 10:49:01;;;;;;;1.23;0.90;;;;;12.00;94172.00;;;;5057810;28;20187;-61
2023/10/26 10:51:30;;;;;;;0.60;0.60;;;;;11.90;94172.00;;;;5057230;28;20234;-61
2023/10/26 10:53:58;;;;;;;0.67;0.67;;;;;11.90;94151.00;;;;5056311;28;20731;-61
2023/10/26 10:56:26;;;;;;;0.60;0.60;;;;;11.90;94151.00;;;;5055877;28;20256;-61
2023/10/26 10:58:56;;;;;;;0.50;0.50;;;;;11.90;94150.00;;;;5056493;28;20223;-61
2023/10/26 11:01:25;;;;;;;0.57;0.57;;;;;11.80;94164.00;;;;5055789;28;20227;-61
2023/10/26 11:04:06;;;;;;;0.80;0.80;;;;;11.90;94157.00;;;;5055561;28;20188;-61
2023/10/26 11:06:34;;;;;;;0.70;0.70;;;;;11.90;94141.00;;;;5055824;28;20208;-61
2023/10/26 11:09:01;;;;;;;0.80;0.80;;;;;12.00;94140.00;;;;5055697;28;20196;-61
2023/10/26 11:11:30;;;;;;;0.90;0.90;;;;;12.20;94139.00;;;;5054925;28;20224;-61
2023/10/26 11:14:10;;;;;;;1.70;1.60;;;;;12.50;94130.00;;;;5055351;28;20250;-61
2023/10/26 11:16:39;;;;;;;1.00;1.00;;;;;12.70;94128.00;;;;5056185;28;20172;-61
2023/10/26 11:19:06;;;;;;;3.10;0.70;;;;;13.00;94135.00;;;;5056513;28;20261;-61
2023/10/26 11:21:34;;;;;;;0.90;0.90;;;;;13.20;94142.00;;;;5055646;28;20287;-61
2023/10/26 11:24:02;;;;;;;0.57;0.57;;;;;13.30;94131.00;;;;5056047;28;20202;-61
2023/10/26 11:26:29;;;;;;;0.50;0.50;;;;;13.60;94121.00;;;;5055953;28;20313;-61
2023/10/26 11:29:00;;;;;;;1.10;1.00;;;;;13.70;94113.00;;;;5055704;28;20559;-61
2023/10/26 11:31:41;;;;;;;1.00;0.90;;;;;14.00;94100.00;;;;5055760;28;20224;-61
2023/10/26 11:34:10;;;;;;;0.87;0.87;;;;;14.50;94088.00;;;;5055866;28;20172;-61
2023/10/26 11:36:38;;;;;;;0.60;0.60;;;;;14.90;94096.00;;;;5037633;28;20552;-61
2023/10/26 11:39:06;;;;;;;0.60;0.60;;;;;14.90;94095.00;;;;5055989;28;20222;-61
2023/10/26 11:41:34;;;;;;;0.50;0.50;;;;;14.60;94099.00;;;;5055967;28;20211;-61
2023/10/26 11:44:03;;;;;;;0.53;0.53;;;;;14.60;94091.00;;;;5057702;28;20227;-61
2023/10/26 11:46:32;;;;;;;0.63;0.63;;;;;14.50;94091.00;;;;5056500;28;20216;-61
2023/10/26 11:49:02;;;;;;;0.60;0.60;;;;;14.50;94090.00;;;;5060282;28;20199;-61
2023/10/26 11:51:30;;;;;;;0.83;0.83;;;;;14.60;94079.00;;;;5060226;28;20251;-61
2023/10/26 11:53:58;;;;;;;0.70;0.70;;;;;14.90;94088.00;;;;5060675;28;20660;-61
2023/10/26 11:56:25;;;;;;;0.60;0.60;;;;;15.00;94092.00;;;;5060296;28;20215;-61
2023/10/26 11:58:53;;;;;;;0.43;0.43;;;;;14.90;94081.00;;;;5055661;28;20202;-61
2023/10/26 12:01:20;;;;;;;0.57;0.57;;;;;15.00;94060.00;;;;5056044;28;20592;-61
2023/10/26 12:03:48;;;;;;;0.80;0.80;;;;;15.50;94042.00;;;;5055793;28;20203;-61
2023/10/26 12:06:17;;;;;;;0.50;0.50;;;;;16.90;94039.00;;;;5055494;28;20192;-61
2023/10/26 12:08:44;;;;;;;0.50;0.50;;;;;17.70;94059.00;;;;5037398;28;20196;-61
2023/10/26 12:11:11;;;;;;;0.50;0.50;;;;;17.30;94053.00;;;;5037318;28;20215;-61
2023/10/26 12:13:39;;;;;;;0.53;0.53;;;;;17.20;94057.00;;;;5056125;28;20192;-61
2023/10/26 12:16:07;;;;;;;0.80;0.80;;;;;17.90;94028.00;;;;5038052;28;20192;-61
2023/10/26 12:18:37;;;;;;;0.40;0.40;;;;;19.30;94022.00;;;;5055756;28;20212;-62
2023/10/26 12:21:05;;;;;;;0.60;0.60;;;;;20.00;94024.00;;;;5037664;28;20192;-61
2023/10/26 12:23:33;;;;;;;0.47;0.47;;;;;20.30;94024.00;;;;5059441;28;20192;-62
2023/10/26 12:26:01;;;;;;;0.50;0.50;;;;;19.30;94029.00;;;;5059725;28;20199;-62
2023/10/26 12:28:28;;;;;;;0.53;0.47;;;;;18.50;94024.00;;;;5061752;28;20204;-61